| time (UTC) | temp F | wind direction | speed knots | gust knots | rain 1hr in | rain 24hr in | rain mn in | humidity % | barometer mb |
| 20260504184555 | 71 | 161 | 0.0 | 7.0 | 0.00 | 0.00 | 0.00 | 40 | 1010.4 |
| 20260504184052 | 71 | 0 | 0.0 | 7.0 | 0.00 | 0.00 | 0.00 | 40 | 1010.5 |
| 20260504183552 | 71 | 0 | 0.0 | 7.0 | 0.00 | 0.00 | 0.00 | 42 | 1010.6 |
| 20260504183102 | 71 | 0 | 0.0 | 8.7 | 0.00 | 0.00 | 0.00 | 43 | 1010.6 |
| 20260504182551 | 70 | 0 | 0.0 | 8.7 | 0.00 | 0.00 | 0.00 | 43 | 1010.6 |
| 20260504182051 | 71 | 263 | 0.9 | 7.8 | 0.00 | 0.00 | 0.00 | 39 | 1010.7 |
| 20260504181558 | 70 | 0 | 0.0 | 7.8 | 0.00 | 0.00 | 0.00 | 43 | 1010.7 |
| 20260504181048 | 70 | 157 | 0.0 | 10.4 | 0.00 | 0.00 | 0.00 | 41 | 1010.8 |
| 20260504180549 | 70 | 0 | 0.9 | 10.4 | 0.00 | 0.00 | 0.00 | 41 | 1011.0 |
| 20260504180136 | 70 | 196 | 0.0 | 10.4 | 0.00 | 0.00 | 0.00 | 42 | 1010.9 |
| 20260504175548 | 70 | 0 | 0.9 | 7.8 | 0.00 | 0.00 | 0.00 | 42 | 1011.0 |
| 20260504175048 | 69 | 0 | 0.0 | 7.0 | 0.00 | 0.00 | 0.00 | 41 | 1010.9 |
| 20260504174552 | 69 | 0 | 0.0 | 8.7 | 0.00 | 0.00 | 0.00 | 45 | 1011.1 |
| 20260504174048 | 69 | 217 | 1.7 | 8.7 | 0.00 | 0.00 | 0.00 | 42 | 1011.0 |
| 20260504173551 | 70 | 0 | 0.0 | 7.0 | 0.00 | 0.00 | 0.00 | 40 | 1011.1 |
| 20260504173056 | 69 | 0 | 0.0 | 5.2 | 0.00 | 0.00 | 0.00 | 42 | 1011.1 |
| 20260504172551 | 70 | 188 | 0.0 | 3.5 | 0.00 | 0.00 | 0.00 | 43 | 1011.3 |
| 20260504172051 | 69 | 0 | 0.0 | 3.5 | 0.00 | 0.00 | 0.00 | 41 | 1011.4 |
| 20260504171553 | 69 | 0 | 0.0 | 3.5 | 0.00 | 0.00 | 0.00 | 46 | 1011.5 |
| 20260504171052 | 68 | 186 | 0.0 | 6.1 | 0.00 | 0.00 | 0.00 | 41 | 1011.6 |
| 20260504170552 | 68 | 0 | 0.0 | 6.1 | 0.00 | 0.00 | 0.00 | 40 | 1011.7 |
| 20260504151052 | 65 | 0 | 0.0 | 8.7 | 0.00 | 0.00 | 0.00 | 44 | 1013.0 |
| 20260504150553 | 65 | 0 | 0.0 | 8.7 | 0.00 | 0.00 | 0.00 | 46 | 1013.1 |
| 20260504141049 | 62 | 0 | 0.0 | 1.7 | 0.00 | 0.00 | 0.00 | 51 | 1013.3 |
| 20260504140549 | 63 | 0 | 0.0 | 1.7 | 0.00 | 0.00 | 0.00 | 51 | 1013.2 |
| 20260504130551 | 57 | 176 | 0.0 | 3.5 | 0.00 | 0.00 | 0.00 | 58 | 1013.8 |
| 20260504120108 | 51 | 0 | 0.0 | 0.0 | 0.00 | 0.00 | 0.00 | 62 | 1014.0 |
| 20260504110552 | 46 | 0 | 0.0 | 0.0 | 0.00 | 0.00 | 0.00 | 67 | 1014.0 |
| 20260504100552 | 43 | 0 | 0.0 | 0.0 | 0.00 | 0.00 | 0.00 | 69 | 1013.8 |
| 20260504100116 | 42 | 0 | 0.0 | 0.0 | 0.00 | 0.00 | 0.00 | 70 | 1013.8 |
| 20260504081608 | 44 | 0 | 0.0 | 0.0 | 0.00 | 0.00 | 0.00 | 69 | 1013.5 |
| 20260504081053 | 43 | 0 | 0.0 | 0.0 | 0.00 | 0.00 | 0.00 | 68 | 1013.6 |
| 20260504080553 | 43 | 0 | 0.0 | 0.0 | 0.00 | 0.00 | 0.00 | 69 | 1013.5 |
| 20260504050551 | 45 | 0 | 0.0 | 0.0 | 0.00 | 0.00 | 0.00 | 63 | 1013.2 |
| 20260504045552 | 45 | 0 | 0.0 | 0.0 | 0.00 | 0.00 | 0.00 | 64 | 1013.2 |
| 20260504045051 | 46 | 0 | 0.0 | 0.0 | 0.00 | 0.00 | 0.00 | 64 | 1013.2 |
| 20260504044554 | 46 | 0 | 0.0 | 0.0 | 0.00 | 0.00 | 0.00 | 64 | 1013.2 |
| 20260504044052 | 46 | 0 | 0.0 | 0.0 | 0.00 | 0.00 | 0.00 | 65 | 1013.2 |
| 20260504043553 | 46 | 0 | 0.0 | 0.0 | 0.00 | 0.00 | 0.00 | 64 | 1013.2 |
| 20260504043102 | 45 | 0 | 0.0 | 0.0 | 0.00 | 0.00 | 0.00 | 64 | 1013.2 |
| 20260504042552 | 45 | 0 | 0.0 | 0.0 | 0.00 | 0.00 | 0.00 | 63 | 1013.2 |
| 20260504042056 | 45 | 0 | 0.0 | 0.0 | 0.00 | 0.00 | 0.00 | 65 | 1013.1 |
| 20260504041557 | 45 | 0 | 0.0 | 0.0 | 0.00 | 0.00 | 0.00 | 63 | 1013.1 |
| 20260504041052 | 45 | 0 | 0.0 | 0.0 | 0.00 | 0.00 | 0.00 | 64 | 1013.0 |
| 20260504040552 | 45 | 0 | 0.0 | 0.0 | 0.00 | 0.00 | 0.00 | 64 | 1012.9 |
| 20260504040104 | 46 | 0 | 0.0 | 0.0 | 0.00 | 0.00 | 0.00 | 65 | 1013.0 |
| 20260504035552 | 46 | 0 | 0.0 | 0.0 | 0.00 | 0.00 | 0.00 | 64 | 1012.9 |
| 20260504035056 | 46 | 0 | 0.0 | 0.0 | 0.00 | 0.00 | 0.00 | 62 | 1012.8 |
| 20260504034610 | 46 | 0 | 0.0 | 0.0 | 0.00 | 0.00 | 0.00 | 63 | 1012.7 |
| 20260504034051 | 46 | 0 | 0.0 | 0.0 | 0.00 | 0.00 | 0.00 | 64 | 1012.7 |
| 20260504033552 | 46 | 0 | 0.0 | 0.0 | 0.00 | 0.00 | 0.00 | 63 | 1012.6 |
| 20260504033101 | 46 | 0 | 0.0 | 0.0 | 0.00 | 0.00 | 0.00 | 62 | 1012.7 |
| 20260504032552 | 46 | 0 | 0.0 | 0.0 | 0.00 | 0.00 | 0.00 | 62 | 1012.7 |
| 20260504032055 | 46 | 0 | 0.0 | 0.0 | 0.00 | 0.00 | 0.00 | 63 | 1012.8 |
| 20260504031602 | 46 | 0 | 0.0 | 0.0 | 0.00 | 0.00 | 0.00 | 61 | 1012.7 |
| 20260504031055 | 46 | 0 | 0.0 | 0.0 | 0.00 | 0.00 | 0.00 | 61 | 1012.7 |
| 20260504030548 | 46 | 0 | 0.0 | 0.0 | 0.00 | 0.00 | 0.00 | 63 | 1012.7 |
| 20260504030055 | 46 | 0 | 0.0 | 0.0 | 0.00 | 0.00 | 0.00 | 62 | 1012.7 |
| 20260504025552 | 46 | 0 | 0.0 | 0.0 | 0.00 | 0.00 | 0.00 | 60 | 1012.7 |
| 20260504025052 | 46 | 0 | 0.0 | 0.0 | 0.00 | 0.00 | 0.00 | 61 | 1012.8 |
| 20260504024558 | 46 | 0 | 0.0 | 0.0 | 0.00 | 0.00 | 0.00 | 61 | 1012.6 |
| 20260504024054 | 47 | 0 | 0.0 | 0.0 | 0.00 | 0.00 | 0.00 | 59 | 1012.7 |
| 20260504023552 | 47 | 0 | 0.0 | 0.0 | 0.00 | 0.00 | 0.00 | 58 | 1012.6 |
| 20260504023058 | 47 | 0 | 0.0 | 0.0 | 0.00 | 0.00 | 0.00 | 58 | 1012.5 |
| 20260504022549 | 47 | 0 | 0.0 | 0.0 | 0.00 | 0.00 | 0.00 | 59 | 1012.7 |
| 20260504022055 | 47 | 0 | 0.0 | 0.0 | 0.00 | 0.00 | 0.00 | 58 | 1012.6 |
| 20260504021602 | 47 | 0 | 0.0 | 0.0 | 0.00 | 0.00 | 0.00 | 57 | 1012.7 |
| 20260504021049 | 48 | 0 | 0.0 | 0.0 | 0.00 | 0.00 | 0.00 | 57 | 1012.7 |
| 20260504020548 | 48 | 0 | 0.0 | 0.0 | 0.00 | 0.00 | 0.00 | 58 | 1012.7 |
| 20260504020114 | 48 | 0 | 0.0 | 0.0 | 0.00 | 0.00 | 0.00 | 55 | 1012.6 |
| 20260504015552 | 48 | 0 | 0.0 | 0.0 | 0.00 | 0.00 | 0.00 | 55 | 1012.6 |
| 20260504015048 | 48 | 0 | 0.0 | 0.0 | 0.00 | 0.00 | 0.00 | 56 | 1012.6 |
| 20260504014605 | 49 | 0 | 0.0 | 0.0 | 0.00 | 0.00 | 0.00 | 58 | 1012.6 |
| 20260504014052 | 49 | 0 | 0.0 | 0.0 | 0.00 | 0.00 | 0.00 | 54 | 1012.6 |
| 20260504013552 | 49 | 0 | 0.0 | 0.0 | 0.00 | 0.00 | 0.00 | 53 | 1012.6 |
| 20260504013106 | 49 | 0 | 0.0 | 0.0 | 0.00 | 0.00 | 0.00 | 53 | 1012.5 |
| 20260504012554 | 49 | 0 | 0.0 | 0.0 | 0.00 | 0.00 | 0.00 | 54 | 1012.4 |
| 20260504012052 | 49 | 0 | 0.0 | 0.0 | 0.00 | 0.00 | 0.00 | 54 | 1012.4 |
| 20260504011554 | 49 | 0 | 0.0 | 0.0 | 0.00 | 0.00 | 0.00 | 54 | 1012.3 |
| 20260504011055 | 49 | 0 | 0.0 | 0.0 | 0.00 | 0.00 | 0.00 | 54 | 1012.3 |
| 20260504010551 | 49 | 0 | 0.0 | 0.0 | 0.00 | 0.00 | 0.00 | 54 | 1012.2 |
| 20260504010051 | 49 | 0 | 0.0 | 0.0 | 0.00 | 0.00 | 0.00 | 57 | 1012.2 |
| 20260504005552 | 49 | 0 | 0.0 | 0.0 | 0.00 | 0.00 | 0.00 | 56 | 1012.2 |
| 20260504005049 | 49 | 0 | 0.0 | 0.0 | 0.00 | 0.00 | 0.00 | 55 | 1012.1 |
| 20260504004554 | 49 | 0 | 0.0 | 0.0 | 0.00 | 0.00 | 0.00 | 55 | 1012.1 |
| 20260504004049 | 50 | 0 | 0.0 | 0.0 | 0.00 | 0.00 | 0.00 | 54 | 1012.0 |
| 20260504003549 | 50 | 0 | 0.0 | 0.0 | 0.00 | 0.00 | 0.00 | 55 | 1011.9 |
| 20260504003057 | 50 | 0 | 0.0 | 0.0 | 0.00 | 0.00 | 0.00 | 53 | 1011.8 |
| 20260504002553 | 50 | 0 | 0.0 | 0.0 | 0.00 | 0.00 | 0.00 | 54 | 1011.8 |
| 20260504002052 | 51 | 0 | 0.0 | 0.0 | 0.00 | 0.00 | 0.00 | 53 | 1011.7 |
| 20260504001602 | 51 | 0 | 0.0 | 0.0 | 0.00 | 0.00 | 0.00 | 51 | 1011.6 |
| 20260504001052 | 52 | 0 | 0.0 | 0.0 | 0.00 | 0.00 | 0.00 | 50 | 1011.6 |
| 20260504000552 | 52 | 0 | 0.0 | 0.0 | 0.00 | 0.00 | 0.00 | 49 | 1011.5 |
| 20260503235552 | 53 | 0 | 0.0 | 0.0 | 0.00 | 0.00 | 0.00 | 48 | 1011.4 |
| 20260503235052 | 53 | 0 | 0.0 | 0.0 | 0.00 | 0.00 | 0.00 | 46 | 1011.4 |
| 20260503234552 | 54 | 0 | 0.0 | 0.0 | 0.00 | 0.00 | 0.00 | 47 | 1011.4 |
| 20260503234052 | 54 | 0 | 0.0 | 0.0 | 0.00 | 0.00 | 0.00 | 48 | 1011.4 |
| 20260503233552 | 55 | 0 | 0.0 | 0.0 | 0.00 | 0.00 | 0.00 | 43 | 1011.4 |
| 20260503233053 | 55 | 0 | 0.0 | 0.0 | 0.00 | 0.00 | 0.00 | 43 | 1011.4 |
| 20260503232553 | 55 | 0 | 0.0 | 0.0 | 0.00 | 0.00 | 0.00 | 41 | 1011.4 |
| 20260503232049 | 56 | 0 | 0.0 | 0.0 | 0.00 | 0.00 | 0.00 | 43 | 1011.3 |
| 20260503231607 | 56 | 0 | 0.0 | 0.9 | 0.00 | 0.00 | 0.00 | 43 | 1011.3 |
| 20260503231052 | 57 | 0 | 0.0 | 0.9 | 0.00 | 0.00 | 0.00 | 41 | 1011.3 |
| 20260503230551 | 57 | 0 | 0.0 | 0.0 | 0.00 | 0.00 | 0.00 | 38 | 1011.3 |
| 20260503230105 | 57 | 0 | 0.0 | 0.9 | 0.00 | 0.00 | 0.00 | 39 | 1011.2 |
| 20260503225556 | 57 | 0 | 0.0 | 4.3 | 0.00 | 0.00 | 0.00 | 40 | 1011.1 |
| 20260503225051 | 57 | 0 | 0.0 | 4.3 | 0.00 | 0.00 | 0.00 | 39 | 1011.2 |
| 20260503224603 | 57 | 0 | 0.0 | 4.3 | 0.00 | 0.00 | 0.00 | 41 | 1011.0 |
| 20260503224052 | 58 | 0 | 0.0 | 1.7 | 0.00 | 0.00 | 0.00 | 40 | 1011.0 |
| 20260503223552 | 58 | 0 | 0.0 | 6.1 | 0.00 | 0.00 | 0.00 | 38 | 1011.0 |
| 20260503223051 | 58 | 0 | 0.0 | 6.1 | 0.00 | 0.00 | 0.00 | 37 | 1011.0 |
| 20260503222552 | 58 | 0 | 0.0 | 4.3 | 0.00 | 0.00 | 0.00 | 38 | 1011.0 |
| 20260503222052 | 58 | 0 | 0.0 | 7.0 | 0.00 | 0.00 | 0.00 | 40 | 1011.0 |
| 20260503221556 | 58 | 0 | 0.0 | 7.0 | 0.00 | 0.00 | 0.00 | 38 | 1010.9 |
| 20260503221054 | 58 | 0 | 0.0 | 4.3 | 0.00 | 0.00 | 0.00 | 37 | 1010.9 |
| 20260503220552 | 59 | 0 | 0.0 | 4.3 | 0.00 | 0.00 | 0.00 | 39 | 1011.0 |
| 20260503220055 | 59 | 0 | 0.0 | 4.3 | 0.00 | 0.00 | 0.00 | 35 | 1010.8 |
| 20260503215552 | 59 | 0 | 0.0 | 3.5 | 0.00 | 0.00 | 0.00 | 36 | 1010.7 |
| 20260503215052 | 59 | 0 | 0.0 | 3.5 | 0.00 | 0.00 | 0.00 | 37 | 1010.8 |
| 20260503214558 | 59 | 0 | 0.0 | 4.3 | 0.00 | 0.00 | 0.00 | 38 | 1010.9 |
| 20260503214048 | 59 | 0 | 0.0 | 4.3 | 0.00 | 0.00 | 0.00 | 34 | 1010.9 |
| 20260503213553 | 59 | 0 | 0.0 | 2.6 | 0.00 | 0.00 | 0.00 | 36 | 1010.8 |
| 20260503213103 | 59 | 0 | 0.0 | 1.7 | 0.00 | 0.00 | 0.00 | 36 | 1010.8 |
| 20260503212553 | 59 | 0 | 0.0 | 0.9 | 0.00 | 0.00 | 0.00 | 36 | 1010.8 |
| 20260503212052 | 59 | 0 | 0.0 | 5.2 | 0.00 | 0.00 | 0.00 | 38 | 1010.8 |
| 20260503211614 | 59 | 0 | 0.0 | 7.8 | 0.00 | 0.00 | 0.00 | 33 | 1010.8 |
| 20260503211052 | 60 | 220 | 0.0 | 7.8 | 0.00 | 0.00 | 0.00 | 36 | 1011.0 |
| 20260503210552 | 60 | 0 | 0.0 | 3.5 | 0.00 | 0.00 | 0.00 | 34 | 1010.9 |
| 20260503210056 | 60 | 184 | 0.0 | 2.6 | 0.00 | 0.00 | 0.00 | 35 | 1010.9 |
| 20260503205552 | 60 | 0 | 0.0 | 2.6 | 0.00 | 0.00 | 0.00 | 36 | 1010.7 |
| 20260503205052 | 60 | 0 | 0.0 | 2.6 | 0.00 | 0.00 | 0.00 | 37 | 1010.7 |
| 20260503204558 | 60 | 0 | 0.0 | 7.8 | 0.00 | 0.00 | 0.00 | 37 | 1010.8 |
| 20260503204052 | 59 | 0 | 0.0 | 7.8 | 0.00 | 0.00 | 0.00 | 37 | 1010.9 |
| 20260503203552 | 59 | 0 | 0.0 | 7.8 | 0.00 | 0.00 | 0.00 | 36 | 1011.0 |
| 20260503203059 | 59 | 0 | 0.0 | 3.5 | 0.00 | 0.00 | 0.00 | 35 | 1010.9 |
| 20260503202552 | 59 | 0 | 0.0 | 3.5 | 0.00 | 0.00 | 0.00 | 37 | 1011.0 |
| 20260503202054 | 59 | 0 | 0.0 | 3.5 | 0.00 | 0.00 | 0.00 | 38 | 1011.1 |
| 20260503201556 | 59 | 0 | 0.0 | 5.2 | 0.00 | 0.00 | 0.00 | 38 | 1011.1 |
| 20260503201052 | 58 | 0 | 0.0 | 5.2 | 0.00 | 0.00 | 0.00 | 38 | 1011.0 |
| 20260503200548 | 57 | 0 | 0.0 | 5.2 | 0.00 | 0.00 | 0.00 | 38 | 1011.1 |
| 20260503200106 | 58 | 0 | 0.0 | 7.8 | 0.00 | 0.00 | 0.00 | 39 | 1011.3 |
| 20260503195548 | 59 | 0 | 0.0 | 7.8 | 0.00 | 0.00 | 0.00 | 39 | 1011.2 |
| 20260503195052 | 59 | 0 | 0.9 | 7.8 | 0.00 | 0.00 | 0.00 | 37 | 1011.2 |
| 20260503194604 | 59 | 0 | 0.0 | 6.1 | 0.00 | 0.00 | 0.00 | 34 | 1011.3 |
| 20260503194053 | 59 | 42 | 0.0 | 6.1 | 0.00 | 0.00 | 0.00 | 40 | 1011.3 |
| 20260503193552 | 59 | 0 | 0.0 | 6.1 | 0.00 | 0.00 | 0.00 | 34 | 1011.2 |
| 20260503193104 | 58 | 0 | 0.0 | 6.1 | 0.00 | 0.00 | 0.00 | 36 | 1011.2 |
| 20260503192552 | 58 | 71 | 0.0 | 0.9 | 0.00 | 0.00 | 0.00 | 39 | 1011.4 |
| 20260503192052 | 58 | 0 | 0.0 | 6.1 | 0.00 | 0.00 | 0.00 | 38 | 1011.4 |
| 20260503191606 | 58 | 0 | 0.0 | 6.1 | 0.00 | 0.00 | 0.00 | 38 | 1011.5 |
| 20260503191052 | 59 | 0 | 0.0 | 6.1 | 0.00 | 0.00 | 0.00 | 37 | 1011.6 |
| 20260503190552 | 58 | 0 | 0.0 | 6.1 | 0.00 | 0.00 | 0.00 | 39 | 1011.5 |
| 20260503190051 | 58 | 55 | 0.0 | 5.2 | 0.00 | 0.00 | 0.00 | 41 | 1011.4 |
| 20260503185551 | 58 | 0 | 0.0 | 5.2 | 0.00 | 0.00 | 0.00 | 42 | 1011.4 |
| 20260503185052 | 57 | 0 | 0.0 | 2.6 | 0.00 | 0.00 | 0.00 | 39 | 1011.5 |